Lexington (LEX/KLEX)

Map

Destinations

Information

Location
Lexington, KY
Local Time
13:37 / 1:37 pm
GMT Time
18:37 / 6:37 pm
Gates
Unassigned
No FAA reported delays
METAR KLEX 191754Z 26006KT 9SM OVC010 12/09 A3011 RMK AO2 SLP198 T01170089 10122 20089 50002
TAF KLEX 191723Z 1918/2018 25005KT P6SM OVC009 FM192000 24005KT P6SM BKN012 FM200000 VRB03KT P6SM SCT015 SCT200 TEMPO 2000/2004 BKN015 FM200600 VRB03KT 3SM BR FEW010 BKN200 FM200900 12004KT 2SM BR BKN008 FM201500 11006KT P6SM SCT010 BKN200
  • No charts available